Time;durP1;ratioP1;P1;durP2;ratioP2;P2;SDS_P1;SDS_P2;PMS_P1;PMS_P2;Temp;Humidity;BMP_temperature;BMP_pressure;BME280_temperature;BME280_humidity;BME280_pressure;Samples;Min_cycle;Max_cycle;Signal;HPM_P1;HPM_P2
2022/03/13 00:00:59;;;;;;;23.55;8.48;;;;;;;-4.75;85.85;100747.31;6035238;23;20023;-64
2022/03/13 00:03:26;;;;;;;21.90;8.45;;;;;;;-4.94;85.53;100715.09;6012289;23;20027;-64
2022/03/13 00:05:53;;;;;;;23.15;7.75;;;;;;;-4.76;85.65;100740.25;6011246;23;20027;-65
2022/03/13 00:08:27;;;;;;;23.15;8.10;;;;;;;-4.88;85.67;100737.88;5987802;23;20027;-64
2022/03/13 00:11:05;;;;;;;24.08;8.63;;;;;;;-4.99;85.97;100718.72;6034843;23;20023;-64
2022/03/13 00:13:51;;;;;;;22.80;8.40;;;;;;;-4.90;84.84;100737.91;5989121;23;20102;-66
2022/03/13 00:16:18;;;;;;;23.17;7.97;;;;;;;-5.02;84.99;100716.13;6012018;23;20147;-66
2022/03/13 00:18:46;;;;;;;24.42;8.23;;;;;;;-5.01;85.92;100737.22;6034939;23;20029;-64
2022/03/13 00:21:19;;;;;;;21.38;8.85;;;;;;;-5.10;85.92;100738.22;6034205;23;20465;-64
2022/03/13 00:23:46;;;;;;;23.80;8.15;;;;;;;-5.28;86.90;100704.28;5987729;23;20754;-64
2022/03/13 00:26:16;;;;;;;22.13;7.95;;;;;;;-5.16;86.59;100729.56;5988165;23;20075;-64
2022/03/13 00:28:44;;;;;;;23.63;8.00;;;;;;;-5.22;86.95;100727.91;6011686;23;20039;-64
2022/03/13 00:31:10;;;;;;;20.77;7.75;;;;;;;-5.31;87.39;100727.19;5988491;23;20033;-64
2022/03/13 00:33:36;;;;;;;21.17;8.38;;;;;;;-5.35;87.12;100729.00;6011384;23;20066;-64
2022/03/13 00:36:03;;;;;;;20.35;7.60;;;;;;;-5.49;87.37;100718.66;5964624;23;20019;-64
2022/03/13 00:38:30;;;;;;;22.02;8.73;;;;;;;-5.42;87.49;100737.88;5988162;23;20106;-64
2022/03/13 00:40:57;;;;;;;24.92;8.80;;;;;;;-5.46;88.03;100725.66;5987703;23;20027;-64
2022/03/13 00:43:25;;;;;;;25.42;8.57;;;;;;;-5.47;88.43;100739.75;6010947;23;20333;-64
2022/03/13 00:45:52;;;;;;;29.98;9.52;;;;;;;-5.54;88.34;100733.69;6011270;23;20026;-65
2022/03/13 00:48:18;;;;;;;23.90;8.90;;;;;;;-5.54;88.11;100743.34;6010995;23;20127;-63
2022/03/13 00:50:45;;;;;;;26.92;9.35;;;;;;;-5.59;88.97;100725.88;6010586;23;20402;-64
2022/03/13 00:53:12;;;;;;;23.52;9.07;;;;;;;-5.47;88.75;100739.75;5987604;23;20039;-64
2022/03/13 00:55:38;;;;;;;25.48;9.57;;;;;;;-5.47;88.31;100732.69;6011439;23;20205;-64
2022/03/13 00:58:04;;;;;;;21.60;8.32;;;;;;;-5.37;88.41;100741.34;5987947;23;20026;-64
2022/03/13 01:00:30;;;;;;;21.58;8.48;;;;;;;-5.35;88.39;100734.25;6035313;23;20075;-66
2022/03/13 01:02:56;;;;;;;24.10;8.30;;;;;;;-5.30;87.89;100729.81;6011660;23;20023;-65
2022/03/13 01:05:24;;;;;;;22.98;7.93;;;;;;;-5.22;87.44;100735.81;5988299;23;20027;-65
2022/03/13 01:07:54;;;;;;;21.48;8.95;;;;;;;-5.17;86.80;100733.97;6018198;23;20505;-65
2022/03/13 01:10:21;;;;;;;22.30;8.95;;;;;;;-5.14;86.89;100733.91;6035243;23;20054;-64
2022/03/13 01:12:48;;;;;;;21.75;8.35;;;;;;;-5.09;86.80;100732.06;6034423;23;20034;-65
2022/03/13 01:15:14;;;;;;;25.52;9.77;;;;;;;-4.98;86.43;100734.50;5986467;23;20102;-64
2022/03/13 01:17:41;;;;;;;25.48;9.20;;;;;;;-4.95;86.61;100733.59;6010644;23;20105;-64
2022/03/13 01:20:15;;;;;;;24.95;9.90;;;;;;;-4.86;86.05;100728.16;5987251;23;20031;-64
2022/03/13 01:22:41;;;;;;;22.55;9.32;;;;;;;-4.76;85.97;100734.13;6011170;23;20102;-63
2022/03/13 01:25:07;;;;;;;22.75;9.43;;;;;;;-4.71;85.48;100743.72;5963932;23;20095;-64
2022/03/13 01:27:34;;;;;;;26.42;9.23;;;;;;;-4.63;84.97;100743.56;5985456;23;20027;-65
2022/03/13 01:30:03;;;;;;;23.50;9.93;;;;;;;-4.57;84.88;100751.38;5984157;23;20050;-65
2022/03/13 01:32:31;;;;;;;23.73;8.32;;;;;;;-4.48;84.00;100758.22;5984509;23;20034;-64
2022/03/13 01:34:58;;;;;;;23.50;8.98;;;;;;;-4.38;83.08;100757.16;6030394;23;20079;-66
2022/03/13 01:37:28;;;;;;;20.92;8.52;;;;;;;-4.31;82.30;100758.78;5961764;23;20031;-65
2022/03/13 01:39:58;;;;;;;24.58;9.70;;;;;;;-4.23;81.42;100751.56;6034487;23;20430;-64
2022/03/13 01:42:25;;;;;;;17.35;7.75;;;;;;;-4.21;81.53;100759.44;6033961;23;20042;-63
2022/03/13 01:44:51;;;;;;;19.17;6.93;;;;;;;-4.08;78.26;100762.72;5964070;23;20115;-66
2022/03/13 01:47:19;;;;;;;13.88;4.93;;;;;;;-4.05;77.60;100754.75;6034071;23;20315;-65
2022/03/13 01:49:47;;;;;;;16.90;6.82;;;;;;;-3.98;76.85;100756.34;6010025;23;20438;-64
2022/03/13 01:52:16;;;;;;;18.85;7.05;;;;;;;-3.97;77.78;100763.38;6033603;23;20470;-65
2022/03/13 01:54:45;;;;;;;16.30;6.50;;;;;;;-3.94;76.99;100752.75;5987502;23;20461;-65
2022/03/13 01:57:17;;;;;;;19.88;7.07;;;;;;;-3.96;77.45;100758.03;5987438;23;20057;-65
2022/03/13 01:59:50;;;;;;;16.33;6.80;;;;;;;-3.93;77.56;100760.63;5987576;23;20027;-64
2022/03/13 02:02:16;;;;;;;;;;;;;;;-3.87;77.22;100764.91;5987730;23;20103;-63
2022/03/13 02:04:50;;;;;;;16.83;6.97;;;;;;;-3.92;77.24;100759.72;5986865;23;20279;-64
2022/03/13 02:07:16;;;;;;;17.80;6.40;;;;;;;-3.88;77.66;100765.78;5987024;23;20023;-66
2022/03/13 02:09:42;;;;;;;14.68;6.72;;;;;;;-3.89;77.53;100761.41;6033923;23;20135;-65
2022/03/13 02:12:09;;;;;;;16.10;6.43;;;;;;;-3.81;77.50;100767.41;6010327;23;20408;-63
2022/03/13 02:14:35;;;;;;;20.98;7.85;;;;;;;-3.80;77.91;100766.53;5987094;23;20057;-65
2022/03/13 02:17:01;;;;;;;20.52;7.68;;;;;;;-3.78;77.30;100769.97;5986894;23;20027;-63
2022/03/13 02:19:27;;;;;;;18.27;6.65;;;;;;;-3.73;76.98;100777.81;6033776;23;20027;-65
2022/03/13 02:21:53;;;;;;;16.58;6.65;;;;;;;-3.70;76.53;100775.97;6010048;23;20307;-66
2022/03/13 02:24:24;;;;;;;17.00;7.47;;;;;;;-3.64;77.05;100770.56;5987172;23;20050;-62
2022/03/13 02:27:05;;;;;;;16.83;6.30;;;;;;;-3.58;76.52;100777.47;5987100;23;20033;-66
2022/03/13 02:29:31;;;;;;;17.70;6.72;;;;;;;-3.60;75.62;100770.50;6010198;23;20478;-65
2022/03/13 02:32:00;;;;;;;15.85;6.53;;;;;;;-3.61;75.21;100758.19;6033632;23;20035;-63
2022/03/13 02:34:26;;;;;;;16.10;5.95;;;;;;;-3.57;75.82;100763.34;6033361;23;20436;-66
2022/03/13 02:37:01;;;;;;;16.88;6.90;;;;;;;-3.56;75.15;100759.81;6009835;23;20027;-64
2022/03/13 02:39:29;;;;;;;19.17;6.80;;;;;;;-3.59;75.14;100759.00;5963778;23;20113;-64
2022/03/13 02:41:55;;;;;;;14.50;5.78;;;;;;;-3.60;75.75;100757.28;6033519;23;20039;-65
2022/03/13 02:44:21;;;;;;;15.30;6.13;;;;;;;-3.55;75.22;100750.97;5986243;23;20419;-64
2022/03/13 02:46:47;;;;;;;16.65;6.20;;;;;;;-3.53;75.24;100753.59;6033457;23;20027;-65
2022/03/13 02:49:18;;;;;;;16.48;6.78;;;;;;;-3.52;75.59;100755.31;5986515;23;20382;-64
2022/03/13 02:51:45;;;;;;;15.57;6.05;;;;;;;-3.55;74.97;100752.75;6033482;23;20038;-65
2022/03/13 02:54:13;;;;;;;15.55;6.80;;;;;;;-3.43;74.93;100760.41;5986433;23;20076;-64
2022/03/13 02:56:39;;;;;;;18.00;6.93;;;;;;;-3.44;75.12;100754.25;6010961;23;20039;-65
2022/03/13 02:59:05;;;;;;;16.52;5.88;;;;;;;-3.44;75.89;100753.34;5964901;23;20031;-64
2022/03/13 03:01:31;;;;;;;17.20;7.10;;;;;;;-3.42;74.80;100746.28;5988407;23;20079;-64
2022/03/13 03:03:58;;;;;;;20.52;7.45;;;;;;;-3.47;75.08;100756.97;5988146;23;20170;-64
2022/03/13 03:06:26;;;;;;;16.80;6.78;;;;;;;-3.45;74.60;100767.50;6037486;23;20433;-65
2022/03/13 03:08:52;;;;;;;16.58;6.68;;;;;;;-3.47;76.59;100771.97;5965430;23;20027;-70
2022/03/13 03:11:18;;;;;;;18.45;7.03;;;;;;;-3.51;76.93;100767.63;6011459;23;20029;-63
2022/03/13 03:13:44;;;;;;;15.88;6.57;;;;;;;-3.45;76.85;100772.78;5987770;23;20481;-64
2022/03/13 03:16:10;;;;;;;17.67;7.22;;;;;;;-3.45;76.43;100773.63;6011561;23;20019;-64
2022/03/13 03:18:35;;;;;;;15.40;7.25;;;;;;;-3.39;76.44;100777.94;6011939;23;20123;-65
2022/03/13 03:21:01;;;;;;;19.35;6.82;;;;;;;-3.41;76.96;100780.59;5964927;23;20053;-65
2022/03/13 03:23:27;;;;;;;19.15;6.97;;;;;;;-3.36;77.04;100777.88;5988018;23;20106;-67
2022/03/13 03:25:53;;;;;;;19.75;7.78;;;;;;;-3.35;76.82;100778.72;5988655;23;20019;-65
2022/03/13 03:28:19;;;;;;;18.27;8.05;;;;;;;-3.41;76.49;100774.44;5988567;23;20086;-65
2022/03/13 03:30:45;;;;;;;16.05;6.65;;;;;;;-3.50;76.41;100770.25;5988831;23;20027;-65
2022/03/13 03:33:11;;;;;;;20.45;7.88;;;;;;;-3.34;76.78;100778.69;6037798;23;20034;-64
2022/03/13 03:35:37;;;;;;;16.63;7.38;;;;;;;-3.34;76.90;100780.47;6012341;23;20042;-63
2022/03/13 03:38:03;;;;;;;20.15;7.43;;;;;;;-3.30;77.12;100766.25;5988726;23;20027;-65
2022/03/13 03:40:31;;;;;;;20.52;7.47;;;;;;;-3.47;76.84;100753.47;6035295;23;20023;-64
2022/03/13 03:42:59;;;;;;;18.58;7.35;;;;;;;-3.33;77.48;100769.84;6036215;23;20031;-64
2022/03/13 03:45:25;;;;;;;19.23;7.28;;;;;;;-3.27;77.53;100769.69;6035270;23;20106;-64
2022/03/13 03:47:51;;;;;;;18.60;6.97;;;;;;;-3.24;77.76;100772.28;6010952;23;20038;-65
2022/03/13 03:50:18;;;;;;;17.25;7.25;;;;;;;-3.19;77.78;100765.09;5987504;23;20384;-65
2022/03/13 03:52:46;;;;;;;21.40;8.05;;;;;;;-3.25;77.19;100769.69;6011012;23;20039;-65
2022/03/13 03:55:13;;;;;;;18.75;7.40;;;;;;;-3.19;77.89;100770.38;5987868;23;20071;-65
2022/03/13 03:57:39;;;;;;;15.60;7.60;;;;;;;-3.24;77.70;100772.28;6010802;23;20035;-65
2022/03/13 04:00:07;;;;;;;17.33;7.10;;;;;;;-3.19;78.31;100767.72;6034816;23;20023;-64
2022/03/13 04:02:41;;;;;;;17.25;7.38;;;;;;;-3.24;78.58;100767.00;6034953;23;20023;-65
2022/03/13 04:05:07;;;;;;;17.98;6.15;;;;;;;-3.18;78.50;100772.13;6035357;23;20027;-65
2022/03/13 04:07:33;;;;;;;15.55;7.43;;;;;;;-3.15;77.96;100766.75;5988077;23;20031;-65
2022/03/13 04:09:59;;;;;;;12.43;5.65;;;;;;;-3.09;78.46;100770.16;6011358;23;20027;-65
2022/03/13 04:12:28;;;;;;;12.52;5.38;;;;;;;-3.15;78.13;100769.38;6034390;23;20122;-64
2022/03/13 04:14:54;;;;;;;10.65;5.05;;;;;;;-3.08;77.32;100771.91;6034715;23;20033;-65
2022/03/13 04:17:20;;;;;;;12.82;4.93;;;;;;;-3.14;78.01;100767.66;5987557;23;20111;-64
2022/03/13 04:19:46;;;;;;;12.00;4.90;;;;;;;-3.13;78.30;100774.66;5987374;23;20062;-64
2022/03/13 04:22:12;;;;;;;12.05;5.07;;;;;;;-3.20;77.66;100768.66;5987193;23;20054;-65
2022/03/13 04:24:38;;;;;;;12.90;4.95;;;;;;;-3.31;78.03;100743.38;5987197;23;20027;-64
2022/03/13 04:27:04;;;;;;;11.82;4.25;;;;;;;-3.25;77.96;100765.25;5964240;23;20038;-64
2022/03/13 04:29:30;;;;;;;12.55;4.68;;;;;;;-3.17;78.03;100768.59;6010961;23;20537;-64
2022/03/13 04:31:57;;;;;;;14.32;6.07;;;;;;;-3.12;77.96;100772.88;5987242;23;20026;-64
2022/03/13 04:34:23;;;;;;;13.18;4.97;;;;;;;-3.10;77.88;100763.16;6010527;23;20038;-65
2022/03/13 04:36:49;;;;;;;12.38;5.10;;;;;;;-3.09;77.37;100764.88;6010763;23;20027;-65
2022/03/13 04:39:16;;;;;;;12.77;5.20;;;;;;;-3.19;77.24;100757.16;5987404;23;20366;-65
2022/03/13 04:41:42;;;;;;;12.35;4.40;;;;;;;-3.04;77.65;100776.19;6010106;23;20039;-66
2022/03/13 04:44:13;;;;;;;11.68;4.60;;;;;;;-3.17;77.27;100758.00;5987216;23;20106;-65
2022/03/13 04:46:39;;;;;;;;;;;;;;;-3.00;77.61;100775.22;6033880;23;20023;-66
2022/03/13 04:49:05;;;;;;;10.85;4.55;;;;;;;-3.11;77.83;100762.25;5987275;23;19930;-65
2022/03/13 04:51:32;;;;;;;14.45;6.68;;;;;;;-3.02;77.93;100766.47;5987726;23;20075;-65
2022/03/13 04:53:58;;;;;;;12.70;3.95;;;;;;;-3.01;77.30;100773.50;6010855;23;20046;-65
2022/03/13 04:56:24;;;;;;;11.25;4.47;;;;;;;-3.03;77.35;100770.03;6010371;23;20023;-65
2022/03/13 04:58:50;;;;;;;11.10;3.75;;;;;;;-3.10;77.39;100779.03;6034389;23;20035;-68
2022/03/13 05:01:19;;;;;;;9.68;3.85;;;;;;;-3.02;77.04;100777.03;5986971;23;20456;-65
2022/03/13 05:03:46;;;;;;;12.07;4.32;;;;;;;-3.09;76.64;100775.47;6036306;23;20030;-65
2022/03/13 05:06:12;;;;;;;12.32;4.03;;;;;;;-3.05;76.81;100771.81;5986822;23;20022;-65
2022/03/13 05:08:39;;;;;;;10.52;3.45;;;;;;;-3.08;76.67;100778.06;6010827;23;20027;-64
2022/03/13 05:11:07;;;;;;;12.32;4.15;;;;;;;-3.26;76.89;100757.34;5987583;23;20027;-65
2022/03/13 05:13:34;;;;;;;11.70;3.55;;;;;;;-3.08;76.03;100777.19;6010613;23;20126;-64
2022/03/13 05:16:00;;;;;;;10.98;3.83;;;;;;;-3.18;76.19;100782.72;6010343;23;20354;-66
2022/03/13 05:18:26;;;;;;;9.07;3.45;;;;;;;-3.11;76.67;100777.25;5986871;23;20035;-65
2022/03/13 05:20:52;;;;;;;8.25;2.97;;;;;;;-2.99;75.99;100787.56;5986922;23;20033;-65
2022/03/13 05:23:19;;;;;;;11.32;3.88;;;;;;;-3.05;75.99;100793.00;6010455;23;20031;-64
2022/03/13 05:25:45;;;;;;;12.30;3.55;;;;;;;-2.94;75.50;100788.28;6009846;23;20047;-64
2022/03/13 05:28:11;;;;;;;7.68;2.15;;;;;;;-2.94;74.28;100780.38;5984809;23;20125;-64
2022/03/13 05:30:38;;;;;;;8.82;3.10;;;;;;;-3.17;74.57;100758.00;5962821;23;20038;-65
2022/03/13 05:33:05;;;;;;;10.50;2.65;;;;;;;-3.00;74.89;100786.69;6031640;23;20080;-66
2022/03/13 05:35:31;;;;;;;8.02;2.72;;;;;;;-2.83;74.59;100788.03;6032488;23;20363;-65
2022/03/13 05:37:57;;;;;;;9.25;3.13;;;;;;;-2.98;73.45;100779.56;6034000;23;20488;-65
2022/03/13 05:40:24;;;;;;;7.40;2.30;;;;;;;-2.91;73.78;100775.88;6009735;23;20027;-64
2022/03/13 05:42:56;;;;;;;9.73;2.63;;;;;;;-2.69;73.55;100805.28;5987013;23;20092;-66
2022/03/13 05:45:25;;;;;;;14.90;3.35;;;;;;;-2.64;72.97;100812.25;5987100;23;20023;-65
2022/03/13 05:47:56;;;;;;;7.30;2.50;;;;;;;-2.65;73.49;100813.16;6010179;23;20118;-65
2022/03/13 05:50:23;;;;;;;6.65;2.03;;;;;;;-2.57;72.12;100817.34;6010432;23;20133;-65
2022/03/13 05:52:49;;;;;;;9.00;2.80;;;;;;;-2.65;72.26;100816.66;5985220;23;20031;-65
2022/03/13 05:55:17;;;;;;;9.15;2.42;;;;;;;-2.55;72.15;100820.81;6032270;23;20027;-64
2022/03/13 05:57:43;;;;;;;9.65;2.55;;;;;;;-2.71;72.30;100820.31;6033162;23;20028;-65
2022/03/13 06:00:12;;;;;;;11.32;2.47;;;;;;;-2.83;72.53;100783.59;6009986;23;20355;-66
2022/03/13 06:02:44;;;;;;;8.23;2.67;;;;;;;-2.72;72.73;100823.03;5987761;23;20019;-65
2022/03/13 06:05:11;;;;;;;11.82;2.92;;;;;;;-2.54;72.47;100817.25;5986564;23;20381;-64
2022/03/13 06:07:38;;;;;;;7.28;2.40;;;;;;;-2.45;71.62;100821.44;6009240;23;20390;-66
2022/03/13 06:10:05;;;;;;;8.15;2.38;;;;;;;-2.44;71.00;100818.78;6009841;23;20020;-66
2022/03/13 06:12:33;;;;;;;7.80;2.22;;;;;;;-2.51;71.75;100834.84;6010250;23;20043;-65
2022/03/13 06:15:00;;;;;;;8.30;2.55;;;;;;;-2.57;72.20;100824.41;5963292;23;20426;-65
2022/03/13 06:17:26;;;;;;;13.07;2.88;;;;;;;-2.56;72.91;100821.75;6033759;23;20460;-67
2022/03/13 06:19:56;;;;;;;8.20;2.65;;;;;;;-2.54;73.56;100837.56;6010303;23;20083;-66
2022/03/13 06:22:25;;;;;;;12.95;2.88;;;;;;;-2.55;73.85;100838.50;6033974;23;20110;-66
2022/03/13 06:24:52;;;;;;;8.45;3.03;;;;;;;-2.62;74.27;100839.56;6010401;23;20354;-65
2022/03/13 06:27:21;;;;;;;10.80;2.88;;;;;;;-2.52;74.20;100835.78;5985170;23;20448;-67
2022/03/13 06:29:47;;;;;;;9.32;3.10;;;;;;;-2.61;74.53;100831.56;6033660;23;20114;-66
2022/03/13 06:32:13;;;;;;;9.98;3.58;;;;;;;-2.78;75.34;100824.06;5964669;23;20074;-67
2022/03/13 06:34:38;;;;;;;11.75;3.17;;;;;;;-2.55;74.39;100830.56;6013170;23;20106;-70
2022/03/13 06:37:06;;;;;;;9.75;3.15;;;;;;;-2.47;75.34;100839.16;5989789;23;20091;-67
2022/03/13 06:39:32;;;;;;;12.63;4.43;;;;;;;-2.42;75.52;100826.66;5965134;23;20039;-67
2022/03/13 06:41:58;;;;;;;10.02;3.17;;;;;;;-2.53;75.30;100823.41;5987860;23;20082;-67
2022/03/13 06:44:24;;;;;;;10.60;3.50;;;;;;;-2.46;76.02;100823.22;6035187;23;20035;-67
2022/03/13 06:46:50;;;;;;;8.57;3.05;;;;;;;-2.47;75.93;100828.56;5988245;23;20029;-66
2022/03/13 06:49:17;;;;;;;9.20;3.22;;;;;;;-2.31;75.41;100832.53;6012332;23;20059;-66
2022/03/13 06:51:44;;;;;;;14.23;3.60;;;;;;;-2.33;75.66;100826.44;5990360;23;20190;-76
2022/03/13 06:54:10;;;;;;;10.60;4.05;;;;;;;-2.19;75.65;100832.22;6040515;23;20114;-75
2022/03/13 06:56:40;;;;;;;11.82;3.97;;;;;;;-2.22;75.62;100828.78;6035982;23;20030;-76
2022/03/13 06:59:07;;;;;;;12.07;4.20;;;;;;;-2.12;76.31;100834.69;6038842;23;20028;-76
2022/03/13 07:01:34;;;;;;;15.68;4.07;;;;;;;-2.14;75.34;100817.97;6021127;23;20095;-76
2022/03/13 07:04:01;;;;;;;12.90;4.60;;;;;;;-1.94;75.33;100839.47;6019810;23;20027;-73
2022/03/13 07:06:28;;;;;;;23.05;5.28;;;;;;;-1.90;75.14;100829.66;5998930;23;20390;-76
2022/03/13 07:08:55;;;;;;;11.23;4.05;;;;;;;-1.88;75.72;100834.00;5989522;23;20103;-70
2022/03/13 07:11:22;;;;;;;15.15;4.07;;;;;;;-1.90;75.55;100827.91;5988520;23;20062;-70
2022/03/13 07:13:48;;;;;;;13.45;4.13;;;;;;;-1.77;75.78;100821.31;5991508;23;20054;-75
2022/03/13 07:16:15;;;;;;;14.65;4.15;;;;;;;-1.60;75.21;100807.59;6017559;23;20031;-73
2022/03/13 07:18:42;;;;;;;26.83;4.57;;;;;;;-1.49;73.98;100809.91;5994047;23;20031;-71
2022/03/13 07:21:08;;;;;;;14.57;4.85;;;;;;;-1.19;73.73;100801.91;5974400;23;20023;-69
2022/03/13 07:23:34;;;;;;;14.57;4.57;;;;;;;-1.29;73.08;100804.84;5987979;23;20031;-68
2022/03/13 07:26:00;;;;;;;20.17;5.38;;;;;;;-1.22;73.22;100794.91;5990158;23;20031;-70
2022/03/13 07:28:28;;;;;;;15.23;4.65;;;;;;;-1.22;73.25;100787.81;5994557;23;20023;-71
2022/03/13 07:30:54;;;;;;;17.42;5.72;;;;;;;-1.02;73.09;100802.25;6017424;23;20041;-71
2022/03/13 07:33:21;;;;;;;14.52;4.93;;;;;;;-0.88;73.29;100802.63;5989992;23;20030;-76
2022/03/13 07:38:39;;;;;;;18.52;5.20;;;;;;;-0.70;71.81;100784.38;6040477;23;20111;-72
2022/03/13 07:41:05;;;;;;;13.32;4.80;;;;;;;-0.60;71.13;100781.34;6011217;23;20088;-70
2022/03/13 07:43:33;;;;;;;14.77;4.85;;;;;;;-0.46;70.47;100775.56;6011339;23;20027;-74
2022/03/13 07:45:59;;;;;;;19.50;4.85;;;;;;;-0.32;69.89;100796.34;6014533;23;20091;-71
2022/03/13 07:48:29;;;;;;;14.30;4.72;;;;;;;-0.34;68.77;100776.91;6036589;23;20084;-76
2022/03/13 07:50:57;;;;;;;;;;;;;;;-0.34;69.10;100787.53;6011829;23;20058;-71
2022/03/13 07:53:27;;;;;;;13.00;4.82;;;;;;;-0.19;68.89;100788.78;5990367;23;19978;-70
2022/03/13 07:55:55;;;;;;;19.65;5.88;;;;;;;-0.22;68.62;100775.59;6009936;23;20058;-73
2022/03/13 07:58:22;;;;;;;14.18;5.13;;;;;;;-0.10;68.65;100796.44;6013499;23;20023;-72
2022/03/13 08:00:50;;;;;;;16.88;4.32;;;;;;;0.05;67.88;100787.03;5967028;23;20088;-70
2022/03/13 08:03:20;;;;;;;16.48;5.28;;;;;;;0.16;68.35;100783.06;6016041;23;20053;-78
2022/03/13 08:05:47;;;;;;;16.45;6.10;;;;;;;0.22;68.03;100774.84;5996031;23;20042;-76
2022/03/13 08:08:13;;;;;;;18.13;4.57;;;;;;;-0.04;67.47;100793.53;5972165;23;20026;-76
2022/03/13 08:10:38;;;;;;;20.15;5.07;;;;;;;0.31;66.81;100792.25;6025647;23;20034;-71
2022/03/13 08:13:04;;;;;;;15.13;5.25;;;;;;;-0.05;67.73;100789.16;6011940;23;20033;-66
2022/03/13 08:15:30;;;;;;;16.40;6.55;;;;;;;0.00;67.40;100795.19;6006874;23;20038;-74
2022/03/13 08:17:57;;;;;;;16.10;5.78;;;;;;;0.07;67.61;100798.47;6014702;23;20027;-71
2022/03/13 08:20:22;;;;;;;15.52;5.55;;;;;;;0.38;66.60;100806.19;6037546;23;20353;-71
2022/03/13 08:22:49;;;;;;;17.50;6.13;;;;;;;0.36;67.00;100797.38;6012715;23;20034;-67
2022/03/13 08:25:16;;;;;;;18.60;5.40;;;;;;;0.38;67.50;100799.06;6034653;23;20026;-67
2022/03/13 08:27:42;;;;;;;18.83;6.38;;;;;;;0.56;66.22;100796.63;6035845;23;20058;-67
2022/03/13 08:30:10;;;;;;;14.38;5.38;;;;;;;0.44;66.19;100792.66;6036470;23;20037;-71
2022/03/13 08:32:36;;;;;;;29.05;6.55;;;;;;;0.68;66.04;100797.00;6036931;23;20046;-65
2022/03/13 08:35:03;;;;;;;14.80;5.93;;;;;;;1.00;65.07;100786.88;6013657;23;20083;-69
2022/03/13 08:37:29;;;;;;;18.25;6.30;;;;;;;1.24;64.22;100784.09;6038673;23;20059;-69
2022/03/13 08:39:55;;;;;;;15.38;6.10;;;;;;;1.20;64.06;100789.56;6014349;23;20584;-68
2022/03/13 08:42:20;;;;;;;19.42;5.90;;;;;;;1.33;63.62;100786.41;6038219;23;20038;-71
2022/03/13 08:44:46;;;;;;;19.10;6.28;;;;;;;1.13;64.66;100787.22;6014193;23;20310;-66
2022/03/13 08:47:12;;;;;;;20.60;7.05;;;;;;;1.36;63.71;100783.63;6034460;23;20342;-74
2022/03/13 08:49:38;;;;;;;15.35;5.93;;;;;;;1.22;63.64;100775.34;6030774;23;20095;-70
2022/03/13 08:52:05;;;;;;;16.70;6.10;;;;;;;1.18;63.59;100787.91;6013780;23;20022;-71
2022/03/13 08:54:31;;;;;;;13.05;5.65;;;;;;;1.18;64.05;100786.09;6013577;23;20027;-69
2022/03/13 08:56:58;;;;;;;17.75;6.47;;;;;;;1.18;64.30;100779.91;6013923;23;20107;-70
2022/03/13 08:59:25;;;;;;;19.02;6.63;;;;;;;1.05;64.74;100778.69;6014254;23;20062;-69
2022/03/13 09:01:57;;;;;;;14.13;5.57;;;;;;;1.20;63.98;100762.06;6013963;23;20049;-69
2022/03/13 09:04:26;;;;;;;13.68;5.15;;;;;;;1.49;63.09;100766.16;6014431;23;20023;-73
2022/03/13 09:06:54;;;;;;;17.83;5.15;;;;;;;1.37;62.54;100745.38;6034697;23;20118;-70
2022/03/13 09:09:20;;;;;;;13.55;5.65;;;;;;;1.43;63.11;100763.78;6009700;23;20410;-71
2022/03/13 09:11:47;;;;;;;16.52;6.30;;;;;;;1.18;63.47;100763.94;6008975;23;20031;-72
2022/03/13 09:14:13;;;;;;;12.35;4.97;;;;;;;1.25;63.97;100761.88;6008443;23;20042;-69
2022/03/13 09:16:40;;;;;;;14.13;5.47;;;;;;;1.18;63.42;100762.13;6007630;23;20034;-70
2022/03/13 09:19:06;;;;;;;13.02;5.30;;;;;;;1.40;63.48;100758.56;6011463;23;20038;-69
2022/03/13 09:21:34;;;;;;;18.23;5.20;;;;;;;1.20;64.36;100741.63;6008280;23;20031;-67
2022/03/13 09:24:03;;;;;;;18.23;4.90;;;;;;;1.18;64.59;100748.81;6009074;23;20051;-68
2022/03/13 09:26:29;;;;;;;16.00;5.18;;;;;;;1.18;63.85;100761.28;5984558;23;20031;-66
2022/03/13 09:28:55;;;;;;;14.30;4.90;;;;;;;1.34;63.37;100740.19;5986365;23;20495;-68
2022/03/13 09:31:21;;;;;;;16.88;5.28;;;;;;;1.52;63.30;100752.69;5986210;23;20142;-70
2022/03/13 09:33:47;;;;;;;16.50;5.13;;;;;;;1.26;63.30;100750.28;6009714;23;20138;-66
2022/03/13 09:36:13;;;;;;;12.40;4.18;;;;;;;1.41;62.88;100755.81;5986735;23;20111;-69
2022/03/13 09:38:39;;;;;;;12.70;4.90;;;;;;;1.25;63.22;100748.56;6009081;23;20119;-68
2022/03/13 09:41:05;;;;;;;17.98;4.70;;;;;;;1.09;63.91;100757.19;5985565;23;20153;-72
2022/03/13 09:43:32;;;;;;;20.27;4.93;;;;;;;1.14;63.59;100752.56;5963919;23;20026;-68
2022/03/13 09:45:58;;;;;;;13.45;4.65;;;;;;;1.52;63.13;100762.50;6010344;23;20035;-70
2022/03/13 09:48:24;;;;;;;11.57;4.50;;;;;;;1.48;62.34;100751.09;6009348;23;20042;-70
2022/03/13 09:50:52;;;;;;;12.15;5.03;;;;;;;1.81;62.37;100754.09;6008559;23;20078;-69
2022/03/13 09:53:18;;;;;;;13.57;4.63;;;;;;;1.97;61.10;100743.59;5985415;23;20178;-68
2022/03/13 09:55:44;;;;;;;27.27;5.25;;;;;;;2.15;60.68;100745.41;6032055;23;20075;-71
2022/03/13 09:58:10;;;;;;;12.68;5.28;;;;;;;2.17;60.65;100743.53;6036622;23;20405;-69
2022/03/13 10:00:36;;;;;;;20.13;6.75;;;;;;;2.13;60.50;100739.28;6032349;23;20034;-68
2022/03/13 10:03:08;;;;;;;18.73;5.93;;;;;;;2.78;59.49;100744.22;5985913;23;20105;-67
2022/03/13 10:05:44;;;;;;;21.52;9.70;;;;;;;2.77;59.28;100734.50;5987139;23;20031;-75
2022/03/13 10:08:11;;;;;;;14.48;5.55;;;;;;;2.70;58.61;100738.41;5980877;23;20083;-70
2022/03/13 10:10:45;;;;;;;12.15;4.80;;;;;;;2.69;59.48;100737.53;5986390;23;20077;-67
2022/03/13 10:13:16;;;;;;;11.88;4.60;;;;;;;3.04;58.20;100717.13;5986384;23;20099;-67
2022/03/13 10:15:47;;;;;;;14.82;4.53;;;;;;;2.64;58.85;100719.09;6008082;23;20034;-67
2022/03/13 10:18:18;;;;;;;17.02;4.75;;;;;;;2.69;58.13;100721.53;6009152;23;20019;-66
2022/03/13 10:20:45;;;;;;;13.35;4.45;;;;;;;2.85;57.50;100737.66;6009105;23;20357;-76
2022/03/13 10:23:16;;;;;;;14.60;4.63;;;;;;;2.94;57.50;100739.88;6033802;23;20111;-73
2022/03/13 10:25:44;;;;;;;14.13;4.18;;;;;;;2.88;57.61;100729.50;5988094;23;20049;-77
2022/03/13 10:28:30;;;;;;;12.00;3.88;;;;;;;3.08;57.52;100715.16;6011407;23;20019;-74
2022/03/13 10:30:59;;;;;;;12.40;4.50;;;;;;;3.42;56.57;100716.97;5969555;23;20031;-75
2022/03/13 10:33:48;;;;;;;14.25;4.45;;;;;;;3.84;55.27;100712.97;5986908;23;20112;-69
2022/03/13 10:36:17;;;;;;;12.25;4.20;;;;;;;3.80;54.55;100708.72;5965418;23;20374;-71
2022/03/13 10:38:45;;;;;;;12.93;3.92;;;;;;;3.59;55.05;100698.22;6009872;23;20150;-69
2022/03/13 10:41:12;;;;;;;13.38;4.40;;;;;;;3.43;55.95;100697.28;6009939;23;20458;-68
2022/03/13 10:43:55;;;;;;;14.00;4.38;;;;;;;3.81;55.40;100699.75;6011973;23;20046;-73
2022/03/13 10:46:29;;;;;;;13.65;4.43;;;;;;;3.87;54.58;100691.38;5988578;23;20066;-73
2022/03/13 10:48:58;;;;;;;13.32;4.95;;;;;;;4.58;52.73;100688.34;5993322;23;20027;-73
2022/03/13 10:51:41;;;;;;;13.52;5.03;;;;;;;5.71;49.63;100680.75;5994360;23;20027;-73
2022/03/13 10:54:07;;;;;;;17.88;4.85;;;;;;;6.02;48.62;100680.56;6016756;23;20082;-73
2022/03/13 10:56:35;;;;;;;14.75;4.85;;;;;;;6.37;48.20;100684.66;5989046;23;20050;-73
2022/03/13 10:59:17;;;;;;;11.95;4.78;;;;;;;7.35;45.99;100683.50;6013623;23;20027;-70
2022/03/13 11:01:44;;;;;;;13.88;4.80;;;;;;;7.71;44.82;100685.47;6013452;23;20035;-72
2022/03/13 11:04:10;;;;;;;15.73;4.65;;;;;;;9.70;41.46;100681.50;5992137;23;20058;-73
2022/03/13 11:06:36;;;;;;;15.35;4.72;;;;;;;9.72;39.93;100682.22;6010599;23;20031;-74
2022/03/13 11:09:02;;;;;;;16.13;4.78;;;;;;;9.67;39.97;100679.03;6035014;23;20035;-72
2022/03/13 11:11:29;;;;;;;14.63;5.20;;;;;;;8.88;40.74;100667.97;5993727;23;20056;-74
2022/03/13 11:14:01;;;;;;;12.98;5.88;;;;;;;8.89;40.98;100668.88;6008684;23;20054;-75
2022/03/13 11:16:33;;;;;;;14.07;5.18;;;;;;;9.09;40.42;100662.81;6033524;23;20060;-72
2022/03/13 11:19:08;;;;;;;14.45;5.65;;;;;;;8.89;41.49;100650.84;6008731;23;20477;-69
2022/03/13 11:21:35;;;;;;;16.00;5.57;;;;;;;8.74;41.06;100660.09;5985571;23;20023;-71
2022/03/13 11:24:01;;;;;;;14.38;5.97;;;;;;;8.01;42.21;100670.81;6010127;23;20027;-71
2022/03/13 11:26:29;;;;;;;14.93;5.55;;;;;;;6.90;45.17;100665.00;6008591;23;20030;-78